• Join FlightAware (Why Join?)
  • Login
  • US Flag 
07:37PM EST


 

Airport Tracker/Info


-or-


 

Live Flight TrackerFlight Track Log ✈ ASQ5941 ✈ 06-Mar-2014 ✈ KORD - KAVP

Flight Track Log - Related Links

Times and Time Zones

All times are in EST time to prevent confusion due to time zone crossing. See the ASQ5941 flight status page for this flight to view local times or setup timezone preferences in your user account.

Time Position Orientation Groundspeed Altitude Reporting Facility
EST Latitude Longitude Course Direction KTS MPH feet Rate Location/Type
05:48PM 42.0000 -87.9500 80° East 164 189 1,900  Level Chicago TRACON
05:49PM 42.0333 -87.9500 360° North 218 251 3,600 1,800 Climbing Chicago TRACON
05:50PM 42.1000 -87.8833 37° Northeast 270 311 5,500 1,800 Climbing Chicago TRACON
05:51PM 42.1419 -87.8353 40° Northeast 274 315 7,000 2,160 Climbing Chicago Center
05:52PM 42.1561 -87.7244 80° East 289 333 9,400 2,220 Climbing Chicago Center
05:53PM 42.1494 -87.6144 95° East 294 338 11,700 1,680 Climbing Chicago Center
05:54PM 42.1023 -86.9820 80° East  Level FlightAware Approximate
05:54PM 42.1422 -87.4886 94° East 311 358 12,900  Level Chicago Center
05:55PM 42.1333 -87.3547 95° East 357 411 13,700 900 Climbing Chicago Center
05:56PM 42.1231 -87.2047 95° East 374 430 14,800 960 Climbing Chicago Center
05:57PM 42.1136 -87.0608 95° East 384 442 15,800 960 Climbing Chicago Center
05:58PM 42.1175 -86.9086 88° East 395 455 16,800 960 Climbing Chicago Center
05:59PM 42.1228 -86.7600 87° East 396 456 17,800 840 Climbing Chicago Center
06:00PM 42.1292 -86.6225 86° East 400 460 18,600 960 Climbing Chicago Center
06:02PM 42.1353 -86.4400 87° East 405 466 19,800 1,020 Climbing Chicago Center
06:03PM 42.1394 -86.2864 88° East 409 471 20,800 1,080 Climbing Chicago Center
06:04PM 42.1444 -86.1331 87° East 410 472 22,100 1,200 Climbing Chicago Center
06:05PM 42.1442 -85.9794 90° East 411 473 23,300 1,200 Climbing Chicago Center
06:06PM 42.1417 -85.8094 91° East 409 471 24,600 1,200 Climbing Chicago Center
06:07PM 42.1400 -85.6586 91° East 405 466 25,800 1,020 Climbing Chicago Center
06:08PM 42.1383 -85.5061 91° East 409 471 26,800 960 Climbing Chicago Center
06:09PM 42.1367 -85.3550 91° East 408 470 27,800 960 Climbing Chicago Center
06:10PM 42.1364 -85.2022 90° East 410 472 28,800 1,020 Climbing Chicago Center
06:11PM 42.1333 -85.0192 91° East 410 472 30,000 1,020 Climbing Chicago Center
06:12PM 42.1314 -84.8664 91° East 409 471 31,000 960 Climbing Chicago Center
06:13PM 42.1289 -84.7111 91° East 413 475 32,000 960 Climbing Chicago Center
06:14PM 42.1261 -84.5533 91° East 419 482 33,100 960 Climbing Chicago Center
06:15PM 42.1175 -84.3950 94° East 424 488 34,100 1,020 Climbing Chicago Center
06:16PM 42.1081 -84.2736 96° East 421 484 34,800 540 Climbing Cleveland Center
06:17PM 42.0981 -84.1142 95° East 428 493 35,000 60 Climbing Cleveland Center
06:18PM 42.0878 -83.9461 95° East 450 518 35,000  Level Cleveland Center
06:19PM 42.0778 -83.7706 94° East 470 541 35,000  Level Cleveland Center
06:20PM 42.0667 -83.5947 95° East 475 547 35,000  Level Cleveland Center
06:21PM 42.0514 -83.3783 95° East 480 552 35,000  Level Cleveland Center
06:22PM 42.0403 -83.2050 95° East 486 559 35,000  Level Cleveland Center
06:23PM 42.0278 -83.0253 95° East 486 559 35,000  Level Cleveland Center
06:24PM 42.0150 -82.8453 95° East 486 559 35,000  Level Cleveland Center
06:25PM 41.9983 -82.6286 96° East 487 560 35,000  Level Cleveland Center
06:26PM 41.9850 -82.4450 96° East 490 564 35,000  Level Cleveland Center
06:27PM 41.9717 -82.2617 96° East 494 568 35,000  Level Cleveland Center
06:28PM 41.9581 -82.0858 96° East 494 568 35,000  Level Cleveland Center
06:29PM 41.9400 -81.8675 96° East 495 570 35,000  Level Cleveland Center
06:30PM 41.9244 -81.6797 96° East 495 570 35,000  Level Cleveland Center
06:31PM 41.9092 -81.4908 96° East 499 574 35,000  Level Cleveland Center
06:32PM 41.8936 -81.3014 96° East 500 575 35,000  Level Cleveland Center
06:33PM 41.8764 -81.1111 97° East 503 579 35,000  Level Cleveland Center
06:34PM 41.8600 -80.9211 97° East 504 580 35,000  Level Cleveland Center
06:35PM 41.8439 -80.7306 96° East 507 583 35,000  Level Cleveland Center
06:36PM 41.8264 -80.5406 97° East 507 583 35,000  Level Cleveland Center
06:37PM 41.8083 -80.3500 97° East 507 583 35,000  Level Cleveland Center
06:38PM 41.7872 -80.1250 97° East 516 594 35,000  Level Cleveland Center
06:39PM 41.7686 -79.9308 97° East 518 596 35,000  Level Cleveland Center
06:40PM 41.7492 -79.7347 98° East 525 604 35,000 -180 Level Cleveland Center
06:41PM 41.7281 -79.5264 98° East 523 602 34,700 -540 Descending Cleveland Center
06:43PM 41.7094 -79.3369 97° East 520 598 33,900 -900 Descending Cleveland Center
06:44PM 41.6883 -79.1433 98° East 518 596 32,900 -1,020 Descending Cleveland Center
06:45PM 41.6683 -78.9517 98° East 523 602 31,900 -960 Descending Cleveland Center
06:46PM 41.6475 -78.7581 98° East 524 603 31,000 -960 Descending Cleveland Center
06:47PM 41.6261 -78.5639 98° East 525 604 30,000 -1,560 Descending Cleveland Center
06:48PM 41.6014 -78.3300 98° East 525 604 27,800 -2,040 Descending Cleveland Center
06:49PM 41.5781 -78.1369 99° East 526 605 25,800 -1,920 Descending Cleveland Center
06:50PM 41.5575 -77.9533 98° East 505 581 23,900 -1,380 Descending Cleveland Center
06:51PM 41.5378 -77.7781 98° East 486 559 23,000 -540 Descending Cleveland Center
06:52PM 41.5150 -77.5922 99° East 488 562 22,900 -720 Descending New York Center
06:53PM 41.4939 -77.4156 99° East 488 562 21,600 -1,440 Descending New York Center
06:54PM 41.4719 -77.2472 100° East 482 555 20,100 -1,680 Descending New York Center
06:55PM 41.4536 -77.0847 99° East 457 526 18,300 -1,620 Descending New York Center
06:56PM 41.4328 -76.9250 100° East 444 511 16,900 -1,740 Descending New York Center
06:57PM 41.4133 -76.7739 100° East 427 491 14,900 -2,160 Descending New York Center
06:58PM 41.3922 -76.6117 100° East 407 468 12,700 -1,860 Descending New York Center
06:59PM 41.3775 -76.4858 99° East 372 428 11,200 -1,320 Descending New York Center
07:00PM 41.3636 -76.3850 100° East 322 371 10,100 -1,080 Descending New York Center
07:01PM 41.3519 -76.2819 99° East 288 331 9,100 -1,020 Descending New York Center
07:02PM 41.3361 -76.1700 101° East 281 323 8,100 -1,320 Descending New York Center
07:03PM 41.3239 -76.0753 100° East 276 318 6,500 -1,320 Descending New York Center
07:04PM 41.3217 -75.9839 92° East 264 304 5,500 -1,140 Descending New York Center
07:05PM 41.3481 -75.9028 67° East 239 275 4,300 -1,200 Descending New York Center
07:06PM 41.3700 -75.8300 68° East 226 260 3,200 -720 Descending New York Center
07:07PM 41.3914 -75.7625 67° East 210 242 2,900 -240 Descending New York Center
07:08PM 41.4064 -75.7028 71° East 187 215 2,800 -600 Descending New York Center
07:09PM 41.3758 -75.6894 162° South 88 101 1,800 -720 Descending New York Center
07:10PM 41.3617 -75.6800 153° Southeast 82 94 1,400 -420 Descending New York Center